Weather

Rainfall Maps have ended for the season and will begin again on June 1st.

*Note: Some stations are located near irrigated fields and may also report irrigation

Forrest Carberry Carberry North Wawanesa Glenboro Glenora Treherne Gladstone Portage East High Bluff Elm Creek Carman Winkler Kuhl Farm Morris St.Adolphe Steinbach Selkirk Macdonald Shilo Rivers Somerset Reinland Altona Starbuck St.Pierre Winkler




Somerset - Historical Weather Data
Date Max Temp (°C) Min Temp (°C) Avg Temp (°C) Rain (mm) Avg RH (%) Solar Radiation (W/m2)
4/25/2018 19.3 1.7 10.3 0.0 49.0 20.2
4/24/2018 12.8 -1.6 4.8 0.0 61.0 24.8
4/23/2018 13.7 2.5 7.8 0.0 61.0 21.3
4/22/2018 16.3 3.6 9.6 0.0 62.0 19.7
4/21/2018 16.0 0.8 8.4 0.0 72.0 22.0
4/20/2018 13.2 -0.6 6.0 0.0 72.0 20.4
4/19/2018 11.6 -1.8 4.5 0.0 76.0 21.9
4/18/2018 10.1 -2.5 3.6 0.0 57.0 19.8
4/17/2018 7.0 -2.2 1.8 0.0 55.0 19.7
4/16/2018 4.7 -7.2 -0.9 0.0 64.0 24.1
4/15/2018 1.9 -7.6 -2.4 0.0 62.0 23.9
4/14/2018 0.8 -10.8 -4.5 0.0 63.0 21.9
4/13/2018 -3.2 -10.7 -6.7 0.0 65.0 23.4
4/12/2018 -1.8 -6.6 -3.4 1.1 81.0 19.7
4/11/2018 1.8 -6.3 -2.0 1.7 80.0 14.0
4/10/2018 3.1 -4.2 -1.0 0.0 73.0 14.4
4/9/2018 0.4 -13.8 -5.7 0.0 75.0 18.2
4/8/2018 -3.8 -13.1 -7.8 0.0 60.0 19.3
4/7/2018 -3.5 -16.8 -10.0 0.0 66.0 22.5
4/6/2018 -6.1 -19.3 -13.0 0.0 68.0 22.1
4/5/2018 -3.2 -15.2 -8.3 0.2 67.0 18.8
4/4/2018 -2.5 -12.3 -7.4 0.0 71.0 19.9
4/3/2018 -4.1 -20.0 -11.6 0.0 65.0 19.6
4/2/2018 -10.6 -18.0 -14.6 0.0 66.0 21.3
4/1/2018 -2.7 -13.5 -8.8 0.0 65.0 20.9
3/31/2018 -9.4 -18.4 -13.6 0.0 66.0 20.9
3/30/2018 -9.2 -19.7 -13.9 0.0 63.0 18.2
3/29/2018 -6.4 -15.9 -10.5 0.0 78.0 15.4
3/28/2018 1.9 -8.4 -4.8 1.5 80.0 17.5
3/27/2018 3.9 -6.3 -0.8 0.0 86.0 18.0
3/26/2018 0.5 -4.5 -1.3 0.0 94.0 10.9
3/25/2018 1.5 -3.3 -0.7 0.7 92.0 11.3
3/24/2018 -1.5 -3.6 -2.6 0.0 92.0 8.5
3/23/2018 0.3 -7.4 -2.8 0.0 82.0 10.5
3/22/2018 0.1 -4.1 -1.6 0.0 91.0 10.5
3/21/2018 -0.4 -5.6 -2.5 0.5 93.0 12.4
3/20/2018 -2.2 -8.0 -5.2 0.0 84.0 13.1
3/19/2018 -4.3 -8.3 -6.3 0.0 77.0 12.1
3/18/2018 0.0 -4.7 -1.7 0.0 85.0 13.9
3/17/2018 0.8 -17.0 -6.0 0.0 75.0 17.1
3/16/2018 1.1 -13.9 -7.1 0.0 61.0 17.5
3/15/2018 -6.2 -16.8 -11.4 0.0 77.0 17.6
3/14/2018 -2.3 -12.5 -6.6 0.0 82.0 17.5
3/13/2018 0.1 -19.2 -7.6 0.0 77.0 15.4
3/12/2018 -2.1 -15.8 -8.8 0.0 78.0 16.9
3/11/2018 -2.1 -13.2 -6.9 0.0 82.0 16.3
3/10/2018 -1.2 -7.7 -5.0 0.9 87.0 9.8
3/9/2018 -6.3 -20.1 -10.9 0.0 86.0 14.8
3/8/2018 -5.5 -19.5 -12.6 0.0 86.0 13.4
3/7/2018 -5.7 -17.6 -11.0 0.0 84.0 12.5
3/6/2018 -3.9 -14.7 -8.5 0.0 79.0 14.6
3/5/2018 -0.5 -4.1 -2.3 1.1 97.0 6.6
3/4/2018 2.6 -0.9 0.3 5.8 85.0 6.4
3/3/2018 2.4 -9.7 -3.2 0.0 77.0 13.1
3/2/2018 -2.8 -12.7 -7.1 0.0 84.0 10.3
3/1/2018 1.5 -14.6 -6.4 0.0 83.0 14.1
2/28/2018 0.8 -12.8 -6.5 0.0 82.0 13.3
2/27/2018 -1.6 -16.5 -8.6 0.0 79.0 13.9
2/26/2018 0.8 -15.5 -7.3 0.0 81.0 13.4
2/25/2018 -3.7 -15.4 -9.3 0.0 85.0 11.6
2/24/2018 -5.7 -16.9 -10.7 0.0 81.0 10.8
2/23/2018 -10.4 -20.6 -15.9 0.0 82.0 12.2
2/22/2018 -7.9 -19.7 -15.5 0.0 76.0 12.9
2/21/2018 -14.3 -22.4 -18.2 0.0 74.0 12.2
2/20/2018 -13.4 -17.4 -15.7 0.7 76.0 11.1
2/19/2018 -14.3 -25.4 -19.4 0.0 66.0 9.6
2/18/2018 -12.9 -21.2 -16.9 0.0 76.0 8.6
2/17/2018 -10.6 -18.5 -13.7 0.0 74.0 11.8
2/16/2018 -10.1 -22.6 -15.9 0.0 77.0 8.8
2/15/2018 -12.8 -23.9 -20.6 0.0 73.0 10.2
2/14/2018 0.7 -12.9 -5.1 0.1 83.0 5.5
2/13/2018 -5.8 -21.4 -12.4 0.2 76.0 9.1
2/12/2018 -19.2 -29.6 -24.6 0.0 69.0 11.1
2/11/2018 -14.9 -27.9 -19.2 0.0 76.0 10.5
2/10/2018 -12.1 -22.7 -17.6 0.0 73.0 8.8
2/9/2018 -15.8 -28.0 -21.4 0.0 73.0 10.2
2/8/2018 -18.3 -27.1 -23.0 0.0 76.0 9.3
2/7/2018 -16.7 -26.6 -21.3 0.0 77.0 10.2
2/6/2018 -15.7 -27.1 -21.2 0.0 77.0 6.3
2/5/2018 -16.1 -24.5 -20.3 0.0 71.0 8.9
2/4/2018 -17.1 -28.3 -22.4 0.0 70.0 7.7
2/3/2018 -20.3 -27.0 -24.0 0.4 76.0 6.5
2/2/2018 -15.6 -23.9 -19.7 0.1 76.0 4.7
2/1/2018 -19.4 -27.2 -23.1 0.0 73.0 8.8
1/31/2018 -13.6 -22.6 -17.9 0.2 72.0 7.3
1/30/2018 0.9 -20.3 -10.7 0.9 82.0 4.6
1/29/2018 -17.7 -20.9 -19.2 0.0 80.0 6.9
1/28/2018 -19.0 -23.7 -21.9 0.0 80.0 7.8
1/27/2018 -9.7 -22.3 -16.4 0.4 80.0 5.4
1/26/2018 -3.5 -10.2 -5.6 0.0 92.0 2.2
1/25/2018 -4.3 -10.8 -7.2 0.0 94.0 3.5
1/24/2018 -5.3 -11.8 -9.1 0.0 92.0 2.2
1/23/2018 -5.1 -8.3 -7.0 0.0 92.0 1.9
1/22/2018 -5.3 -8.0 -6.6 0.0 93.0 2.4
1/21/2018 -3.9 -7.8 -5.9 0.0 95.0 2.6
1/20/2018 1.0 -10.1 -4.2 0.0 87.0 6.7
1/19/2018 3.9 -4.1 1.3 0.0 80.0 5.2
1/18/2018 1.7 -5.5 -2.9 0.0 82.0 4.5
1/17/2018 2.7 -15.7 -5.3 0.1 71.0 6.9
1/16/2018 -13.8 -28.4 -20.1 0.0 67.0 5.7
1/15/2018 -23.9 -29.3 -26.8 0.0 73.0 6.9
1/14/2018 -14.5 -25.4 -18.8 0.8 80.0 3.6
1/13/2018 -19.3 -31.3 -25.0 0.0 72.0 6.7
1/12/2018 -22.7 -29.4 -25.9 0.0 72.0 6.7
1/11/2018 -21.9 -28.1 -25.1 0.4 72.0 5.6
1/10/2018 -0.7 -22.0 -12.7 1.0 85.0 3.1
1/9/2018 0.8 -9.9 -3.9 0.0 87.0 5.1
1/8/2018 -4.0 -10.4 -7.0 0.0 82.0 5.6
1/7/2018 -1.0 -7.1 -3.1 0.0 83.0 3.7
1/6/2018 -7.1 -16.5 -11.9 0.3 83.0 2.6
1/5/2018 -16.4 -28.0 -21.5 0.0 72.0 3.8
1/4/2018 -19.4 -26.5 -21.9 0.0 77.0 4.4
1/3/2018 -19.4 -25.6 -22.2 0.0 77.0 4.4
1/2/2018 -13.3 -23.8 -18.9 0.0 75.0 3.6
1/1/2018 -19.1 -29.1 -24.4 0.0 72.0 6.1
12/31/2017 -24.5 -32.1 -27.9 0.0 74.0 5.8
12/30/2017 -30.1 -36.2 -32.9 0.0 71.0 5.3
12/29/2017 -25.5 -32.9 -28.6 0.0 74.0 5.4
12/28/2017 -20.2 -27.5 -23.0 0.3 77.0 5.2
12/27/2017 -20.4 -32.1 -26.7 0.0 71.0 5.3
12/26/2017 -26.4 -29.4 -27.9 0.0 71.0 5.7
12/25/2017 -26.4 -29.5 -28.0 0.1 71.0 5.2
12/24/2017 -21.4 -28.7 -24.4 0.0 75.0 4.9
12/23/2017 -8.5 -24.0 -15.9 0.0 80.0 3.3
12/22/2017 -9.1 -16.9 -12.6 0.0 79.0 3.2
12/21/2017 -13.2 -24.7 -19.6 0.0 80.0 5.6
12/20/2017 -16.2 -23.6 -18.5 0.2 81.0 2.9
12/19/2017 -3.5 -21.1 -11.6 0.3 74.0 5.1
12/18/2017 0.2 -4.2 -1.7 0.0 82.0 2.7
12/17/2017 -0.9 -12.2 -6.5 0.0 81.0 5.6
12/16/2017 -4.2 -10.7 -8.2 0.0 91.0 5.0
12/15/2017 -4.4 -10.5 -8.3 1.0 90.0 2.8
12/14/2017 -5.3 -10.4 -8.0 0.2 90.0 2.6
12/13/2017 0.1 -10.3 -5.6 0.2 90.0 1.5
12/12/2017 3.5 -9.7 -1.9 0.0 84.0 4.1
12/11/2017 1.4 -18.3 -9.0 0.2 87.0 4.3
12/10/2017 1.3 -9.9 -4.7 3.3 88.0 2.7
12/9/2017 0.9 -13.0 -5.9 0.0 79.0 3.9
12/8/2017 -1.7 -10.8 -6.2 0.0 84.0 5.2
12/7/2017 -4.3 -16.2 -8.8 0.0 86.0 3.1
12/6/2017 -10.2 -17.7 -14.0 0.3 74.0 5.2
12/5/2017 -12.0 -18.4 -15.2 0.0 78.0 6.0
12/4/2017 -4.1 -14.5 -7.3 0.1 88.0 2.0
12/3/2017 -0.6 -9.7 -4.0 0.0 89.0 2.7
12/2/2017 1.7 -11.4 -3.9 0.0 87.0 5.5
12/1/2017 -0.2 -9.0 -3.9 0.0 88.0 3.6
11/30/2017 0.8 -4.7 -2.0 0.0 87.0 5.7
11/29/2017 3.8 -3.9 0.5 0.7 72.0 2.4
11/28/2017 1.8 -9.6 -3.7 0.5 70.0 5.4
11/27/2017 6.3 -6.4 1.3 0.0 83.0 3.6
11/26/2017 0.2 -7.6 -5.3 0.0 90.0 2.2
11/25/2017 0.8 -11.3 -4.8 0.0 87.0 4.7
11/24/2017 6.1 -8.3 1.1 0.0 84.0 5.8
11/23/2017 7.2 -10.9 -2.1 0.0 89.0 3.9
11/22/2017 -4.8 -17.3 -10.2 0.1 85.0 3.0
11/21/2017 -10.2 -14.8 -12.4 0.0 81.0 6.4
11/20/2017 4.1 -10.9 -3.0 0.0 76.0 4.5
11/19/2017 -3.8 -13.7 -9.2 0.0 84.0 6.7
11/18/2017 -10.7 -15.0 -12.6 0.0 77.0 7.3
11/17/2017 -0.2 -12.9 -8.4 0.0 80.0 7.1
11/16/2017 -1.8 -10.2 -6.4 0.2 91.0 3.4
11/15/2017 -4.1 -10.7 -9.3 0.0 89.0 3.0
11/14/2017 3.7 -4.4 -0.6 0.0 84.0 6.0
11/13/2017 0.2 -8.9 -4.8 0.0 87.0 7.8
11/12/2017 -4.8 -9.9 -7.4 0.0 84.0 7.4
11/11/2017 -3.3 -6.7 -5.4 0.0 87.0 4.3
11/10/2017 -6.6 -19.5 -11.7 0.5 81.0 3.8
11/9/2017 -12.8 -22.5 -18.1 0.0 82.0 8.2
11/8/2017 -10.5 -18.8 -13.1 0.7 83.0 4.7
11/7/2017 -6.0 -19.3 -12.2 0.0 80.0 8.4
11/6/2017 -9.1 -16.0 -12.7 0.0 81.0 8.7
11/5/2017 -4.4 -13.2 -9.1 0.0 83.0 6.7
11/4/2017 -1.6 -5.5 -4.0 0.8 91.0 3.3
11/3/2017 -5.2 -12.8 -7.4 0.0 88.0 6.1
11/2/2017 -3.0 -14.2 -5.6 0.0 87.0 6.5
11/1/2017 -2.0 -7.7 -4.2 0.7 91.0 4.1
10/31/2017 -2.1 -13.0 -7.3 0.0 83.0 5.7